Time;durP1;ratioP1;P1;durP2;ratioP2;P2;SDS_P1;SDS_P2;PMS_P1;PMS_P2;Temp;Humidity;BMP_temperature;BMP_pressure;BME280_temperature;BME280_humidity;BME280_pressure;Samples;Min_cycle;Max_cycle;Signal;HPM_P1;HPM_P2
2021/07/05 00:00:37;;;;;;;19.42;13.27;;;;;;;17.35;57.17;97856.59;5114965;28;20032;-77
2021/07/05 00:03:03;;;;;;;20.17;14.13;;;;;;;17.30;57.69;97854.09;5114889;28;20027;-77
2021/07/05 00:05:28;;;;;;;22.05;13.73;;;;;;;17.29;57.61;97856.06;5114784;28;20134;-77
2021/07/05 00:07:54;;;;;;;19.50;12.95;;;;;;;17.32;57.44;97855.34;5103591;28;20551;-78
2021/07/05 00:10:22;;;;;;;19.98;12.68;;;;;;;17.31;57.78;97856.50;5114361;28;20027;-82
2021/07/05 00:12:48;;;;;;;21.50;12.93;;;;;;;17.31;57.54;97858.47;5108850;28;20468;-82
2021/07/05 00:15:19;;;;;;;19.30;13.10;;;;;;;17.24;57.84;97854.34;5111695;28;20365;-82
2021/07/05 00:17:46;;;;;;;21.33;13.75;;;;;;;17.18;57.66;97853.00;5115599;28;20027;-81
2021/07/05 00:20:12;;;;;;;18.77;13.02;;;;;;;17.10;57.73;97859.50;5113991;28;20032;-81
2021/07/05 00:22:37;;;;;;;22.95;14.43;;;;;;;17.04;58.18;97852.59;5114763;28;20035;-80
2021/07/05 00:25:04;;;;;;;21.08;13.90;;;;;;;17.01;58.09;97856.91;5115743;28;20028;-81
2021/07/05 00:27:30;;;;;;;20.65;14.38;;;;;;;16.99;58.48;97859.22;5115270;28;20042;-79
2021/07/05 00:29:56;;;;;;;21.27;15.00;;;;;;;16.96;58.33;97857.16;5114928;28;20027;-78
2021/07/05 00:32:21;;;;;;;20.50;14.13;;;;;;;16.92;58.51;97847.91;5092498;28;20043;-78
2021/07/05 00:34:47;;;;;;;21.33;14.63;;;;;;;16.95;58.74;97848.00;5109085;28;20027;-79
2021/07/05 00:37:12;;;;;;;25.60;16.90;;;;;;;17.01;58.96;97845.00;5110269;28;20048;-79
2021/07/05 00:39:37;;;;;;;23.08;15.80;;;;;;;17.07;58.83;97847.19;5104649;28;20024;-79
2021/07/05 00:42:03;;;;;;;21.60;14.32;;;;;;;17.09;58.81;97849.59;5106226;28;20493;-79
2021/07/05 00:44:28;;;;;;;20.10;13.55;;;;;;;17.05;58.98;97846.72;5102211;28;20099;-79
2021/07/05 00:46:53;;;;;;;18.42;13.20;;;;;;;17.01;59.15;97856.91;5102257;28;20114;-79
2021/07/05 00:49:19;;;;;;;19.27;12.82;;;;;;;16.94;59.09;97849.16;5106570;28;20477;-80
2021/07/05 00:51:45;;;;;;;18.73;12.93;;;;;;;16.86;58.96;97846.56;5113745;28;20051;-78
2021/07/05 00:54:10;;;;;;;19.38;12.98;;;;;;;16.80;59.53;97849.56;5102234;28;20016;-79
2021/07/05 00:56:36;;;;;;;21.45;13.93;;;;;;;16.76;59.57;97847.88;5104269;28;20433;-79
2021/07/05 00:59:03;;;;;;;18.30;13.13;;;;;;;16.71;59.21;97848.91;5103923;28;20020;-79
2021/07/05 01:01:28;;;;;;;17.55;12.23;;;;;;;16.75;59.87;97849.03;5085120;28;20118;-79
2021/07/05 01:03:53;;;;;;;18.42;13.20;;;;;;;16.77;59.87;97852.25;5106065;28;20539;-79
2021/07/05 01:06:19;;;;;;;17.08;13.27;;;;;;;16.80;59.92;97860.66;5104973;28;20520;-79
2021/07/05 01:08:44;;;;;;;20.98;13.93;;;;;;;16.81;59.88;97850.41;5104343;28;20459;-79
2021/07/05 01:11:10;;;;;;;22.60;14.70;;;;;;;16.82;59.89;97847.25;5104660;28;20034;-78
2021/07/05 01:13:36;;;;;;;22.13;15.35;;;;;;;16.83;59.98;97848.06;5096643;28;20061;-78
2021/07/05 01:16:02;;;;;;;21.67;16.02;;;;;;;16.85;60.11;97848.53;5114176;28;20022;-78
2021/07/05 01:18:28;;;;;;;22.63;16.67;;;;;;;16.89;59.95;97851.38;5102707;28;20051;-78
2021/07/05 01:20:57;;;;;;;21.95;16.23;;;;;;;16.92;60.07;97847.91;5105702;28;20047;-78
2021/07/05 01:23:23;;;;;;;24.90;15.73;;;;;;;16.94;59.93;97843.63;5103957;28;20495;-78
2021/07/05 01:25:48;;;;;;;22.33;16.25;;;;;;;17.00;60.31;97854.47;5102084;28;20066;-78
2021/07/05 01:28:13;;;;;;;22.33;15.68;;;;;;;17.00;59.84;97843.41;5106395;28;20024;-78
2021/07/05 01:30:40;;;;;;;24.65;16.20;;;;;;;17.07;60.67;97854.69;5101546;28;20061;-78
2021/07/05 01:33:08;;;;;;;22.95;16.25;;;;;;;17.13;59.92;97858.81;5104303;28;20023;-78
2021/07/05 01:35:34;;;;;;;26.40;17.75;;;;;;;17.14;60.14;97865.13;5103613;28;20034;-78
2021/07/05 01:38:01;;;;;;;26.17;16.67;;;;;;;17.16;59.84;97869.19;5103152;28;20045;-78
2021/07/05 01:40:27;;;;;;;27.80;16.90;;;;;;;17.20;59.96;97870.09;5102278;28;20059;-78
2021/07/05 01:42:59;;;;;;;26.10;17.35;;;;;;;17.20;59.73;97872.84;5101792;28;20096;-79
2021/07/05 01:45:30;;;;;;;29.33;17.98;;;;;;;17.20;59.92;97869.25;5101897;28;20500;-78
2021/07/05 01:47:57;;;;;;;28.73;17.38;;;;;;;17.18;59.75;97866.84;5104141;28;20031;-78
2021/07/05 01:50:23;;;;;;;25.45;17.00;;;;;;;17.18;60.07;97871.56;5106512;28;20024;-78
2021/07/05 01:52:50;;;;;;;25.40;16.67;;;;;;;17.17;60.22;97870.78;5093938;28;20024;-78
2021/07/05 01:55:15;;;;;;;25.88;18.27;;;;;;;17.13;59.71;97855.22;5113341;28;20365;-78
2021/07/05 01:57:41;;;;;;;28.95;18.15;;;;;;;16.98;59.83;97857.63;5113065;28;20038;-78
2021/07/05 02:00:14;;;;;;;26.40;17.00;;;;;;;16.80;59.76;97862.63;5113269;28;20422;-77
2021/07/05 02:02:39;;;;;;;26.85;17.85;;;;;;;16.67;60.29;97861.88;5113492;28;20088;-78
2021/07/05 02:05:11;;;;;;;28.92;18.48;;;;;;;16.63;60.91;97860.97;5106159;28;20048;-78
2021/07/05 02:07:36;;;;;;;23.92;17.02;;;;;;;16.62;61.10;97862.91;5103322;28;20080;-78
2021/07/05 02:10:05;;;;;;;25.27;17.00;;;;;;;16.64;60.78;97868.13;5106742;28;20020;-78
2021/07/05 02:12:31;;;;;;;28.05;17.77;;;;;;;16.67;60.94;97864.63;5101930;28;20012;-78
2021/07/05 02:14:57;;;;;;;26.25;17.90;;;;;;;16.67;61.18;97864.63;5102637;28;20030;-78
2021/07/05 02:17:22;;;;;;;24.65;16.30;;;;;;;16.69;61.30;97872.59;5100865;28;20020;-78
2021/07/05 02:19:47;;;;;;;25.83;17.23;;;;;;;16.72;61.49;97871.88;5102076;28;20385;-78
2021/07/05 02:22:13;;;;;;;27.55;17.52;;;;;;;16.75;61.52;97860.09;5103098;28;20364;-78
2021/07/05 02:24:38;;;;;;;26.10;16.90;;;;;;;16.75;61.25;97862.88;5101058;28;20023;-78
2021/07/05 02:27:04;;;;;;;24.17;17.20;;;;;;;16.74;61.17;97858.50;5102039;28;20456;-78
2021/07/05 02:29:30;;;;;;;25.67;16.67;;;;;;;16.76;61.22;97862.50;5103254;28;20047;-78
2021/07/05 02:31:55;;;;;;;28.73;17.08;;;;;;;16.76;61.34;97868.03;5100966;28;20052;-78
2021/07/05 02:34:21;;;;;;;26.33;17.58;;;;;;;16.77;60.88;97868.88;5102423;28;20024;-78
2021/07/05 02:36:46;;;;;;;26.35;17.02;;;;;;;16.77;61.17;97875.19;5104023;28;20024;-78
2021/07/05 02:39:12;;;;;;;24.30;17.13;;;;;;;16.78;61.32;97878.78;5101674;28;20024;-78
2021/07/05 02:41:37;;;;;;;25.67;17.10;;;;;;;16.80;61.26;97884.78;5100740;28;20103;-78
2021/07/05 02:44:03;;;;;;;29.60;17.50;;;;;;;16.80;61.40;97880.03;5102628;28;20027;-79
2021/07/05 02:46:29;;;;;;;26.27;16.58;;;;;;;16.77;60.94;97875.19;5101844;28;20055;-79
2021/07/05 02:48:55;;;;;;;28.63;16.38;;;;;;;16.77;61.18;97877.97;5101567;28;20016;-78
2021/07/05 02:51:20;;;;;;;27.40;16.48;;;;;;;16.74;61.33;97872.34;5104629;28;20499;-78
2021/07/05 02:53:46;;;;;;;24.70;16.98;;;;;;;16.72;60.56;97871.88;5102298;28;20043;-78
2021/07/05 02:56:13;;;;;;;26.33;17.33;;;;;;;16.70;60.79;97876.97;5101114;28;20095;-78
2021/07/05 02:58:39;;;;;;;31.38;18.33;;;;;;;16.65;61.30;97872.50;5102899;28;20024;-78
2021/07/05 03:01:07;;;;;;;27.73;17.55;;;;;;;16.62;60.91;97871.22;5103669;28;20022;-79
2021/07/05 03:03:33;;;;;;;30.53;18.30;;;;;;;16.60;60.93;97876.28;5101142;28;20027;-79
2021/07/05 03:05:58;;;;;;;27.10;17.35;;;;;;;16.59;60.84;97880.22;5103712;28;20051;-78
2021/07/05 03:08:24;;;;;;;27.15;17.45;;;;;;;16.57;60.95;97881.75;5109757;28;20147;-79
2021/07/05 03:10:49;;;;;;;26.85;17.60;;;;;;;16.54;61.05;97885.22;5106649;28;20020;-78
2021/07/05 03:13:17;;;;;;;32.15;17.75;;;;;;;16.54;61.54;97891.53;5105016;28;20110;-78
2021/07/05 03:15:43;;;;;;;29.25;18.55;;;;;;;16.56;61.48;97885.66;5107753;28;20039;-78
2021/07/05 03:18:09;;;;;;;30.10;18.92;;;;;;;16.56;61.37;97892.00;5105750;28;20055;-79
2021/07/05 03:20:37;;;;;;;28.55;17.73;;;;;;;16.56;61.30;97885.66;5091664;28;20383;-78
2021/07/05 03:23:05;;;;;;;26.35;17.95;;;;;;;16.57;61.11;97903.88;5106451;28;20107;-78
2021/07/05 03:25:32;;;;;;;27.48;17.75;;;;;;;16.57;61.44;97904.69;5105638;28;20476;-79
2021/07/05 03:27:59;;;;;;;29.92;17.67;;;;;;;16.57;61.19;97906.66;5104540;28;20106;-78
2021/07/05 03:30:26;;;;;;;29.00;18.52;;;;;;;16.56;61.24;97907.81;5106144;28;20028;-78
2021/07/05 03:32:52;;;;;;;34.85;19.05;;;;;;;16.54;61.13;97907.34;5107376;28;20028;-78
2021/07/05 03:35:18;;;;;;;28.90;18.85;;;;;;;16.41;61.71;97906.56;5104278;28;20754;-78
2021/07/05 03:37:45;;;;;;;31.55;19.60;;;;;;;16.41;61.80;97910.13;5087975;28;20490;-78
2021/07/05 03:40:13;;;;;;;32.22;18.63;;;;;;;16.44;62.04;97901.13;5107057;28;20027;-79
2021/07/05 03:42:39;;;;;;;23.73;17.00;;;;;;;16.50;61.65;97910.81;5105560;28;20032;-79
2021/07/05 03:45:08;;;;;;;28.10;18.27;;;;;;;16.46;61.61;97907.13;5103536;28;20490;-80
2021/07/05 03:47:34;;;;;;;29.13;18.08;;;;;;;16.46;61.96;97904.34;5104805;28;20036;-80
2021/07/05 03:49:59;;;;;;;27.67;17.55;;;;;;;16.44;61.86;97903.09;5108675;28;20111;-80
2021/07/05 03:52:25;;;;;;;29.42;18.27;;;;;;;16.49;62.24;97903.66;5105113;28;20054;-80
2021/07/05 03:54:50;;;;;;;25.80;16.48;;;;;;;16.58;62.51;97914.59;5108060;28;20024;-77
2021/07/05 03:57:22;;;;;;;29.17;17.73;;;;;;;16.67;62.23;97914.47;5089386;28;20031;-77
2021/07/05 03:59:55;;;;;;;25.80;17.17;;;;;;;16.74;62.50;97917.44;5091789;28;20024;-77
2021/07/05 04:02:23;;;;;;;25.83;17.85;;;;;;;16.81;62.16;97916.84;5103984;28;20111;-74
2021/07/05 04:04:49;;;;;;;27.35;17.02;;;;;;;16.86;62.30;97918.56;5104704;28;20046;-75
2021/07/05 04:07:16;;;;;;;27.30;17.98;;;;;;;16.93;62.31;97921.53;5104484;28;20032;-74
2021/07/05 04:09:42;;;;;;;23.98;16.85;;;;;;;17.02;62.29;97921.41;5105624;28;20692;-73
2021/07/05 04:12:09;;;;;;;28.52;18.05;;;;;;;17.04;62.21;97925.47;5108464;28;20389;-75
2021/07/05 04:14:35;;;;;;;29.83;18.52;;;;;;;17.05;62.09;97927.06;5102311;28;20051;-76
2021/07/05 04:17:01;;;;;;;28.25;17.75;;;;;;;17.03;62.53;97934.94;5107063;28;20420;-76
2021/07/05 04:19:26;;;;;;;27.20;18.95;;;;;;;17.01;62.38;97928.94;5101346;28;20032;-77
2021/07/05 04:21:52;;;;;;;29.55;19.33;;;;;;;17.02;62.56;97933.31;5106508;28;20035;-76
2021/07/05 04:24:17;;;;;;;31.30;21.00;;;;;;;17.06;62.79;97925.91;5109049;28;20482;-75
2021/07/05 04:26:43;;;;;;;29.10;20.90;;;;;;;17.14;62.88;97920.53;5088628;28;20115;-75
2021/07/05 04:29:08;;;;;;;29.35;21.00;;;;;;;17.16;63.21;97921.81;5109553;28;20027;-74
2021/07/05 04:31:33;;;;;;;29.20;20.23;;;;;;;17.24;63.12;97920.88;5105204;28;20028;-75
2021/07/05 04:33:59;;;;;;;26.20;18.92;;;;;;;17.31;63.28;97917.47;5107364;28;20016;-75
2021/07/05 04:36:24;;;;;;;29.40;20.10;;;;;;;17.41;62.85;97918.91;5089781;28;20035;-76
2021/07/05 04:38:49;;;;;;;28.20;20.25;;;;;;;17.50;63.10;97922.34;5103966;28;20380;-75
2021/07/05 04:41:15;;;;;;;26.58;19.70;;;;;;;17.59;62.88;97918.59;5102145;28;20050;-76
2021/07/05 04:43:40;;;;;;;27.30;19.95;;;;;;;17.63;62.95;97923.06;5102869;28;20028;-75
2021/07/05 04:46:07;;;;;;;29.80;19.35;;;;;;;17.69;62.99;97923.63;5104258;28;20027;-76
2021/07/05 04:48:33;;;;;;;28.77;20.65;;;;;;;17.75;62.98;97929.69;5102592;28;20045;-76
2021/07/05 04:51:00;;;;;;;29.02;19.15;;;;;;;17.82;63.04;97921.56;5106707;28;20028;-75
2021/07/05 04:53:26;;;;;;;28.52;20.40;;;;;;;17.88;63.24;97924.84;5085697;28;20016;-75
2021/07/05 04:55:52;;;;;;;29.35;19.10;;;;;;;17.90;62.95;97923.34;5104117;28;20106;-75
2021/07/05 04:58:17;;;;;;;29.25;19.80;;;;;;;17.94;62.90;97924.22;5102283;28;20028;-75
2021/07/05 05:00:42;;;;;;;29.83;19.15;;;;;;;17.98;63.18;97921.56;5102725;28;20020;-75
2021/07/05 05:03:08;;;;;;;29.98;19.58;;;;;;;18.03;62.97;97926.03;5101263;28;20053;-75
2021/07/05 05:05:34;;;;;;;25.52;18.83;;;;;;;18.04;63.08;97927.66;5102493;28;20044;-75
2021/07/05 05:07:59;;;;;;;29.73;19.75;;;;;;;18.05;63.23;97921.75;5102655;28;20095;-75
2021/07/05 05:10:26;;;;;;;28.02;19.55;;;;;;;18.10;62.98;97927.03;5103473;28;20361;-75
2021/07/05 05:12:53;;;;;;;30.67;19.20;;;;;;;18.18;63.28;97921.63;5101639;28;20027;-75
2021/07/05 05:15:19;;;;;;;26.40;16.98;;;;;;;18.24;63.19;97918.25;5101756;28;20047;-75
2021/07/05 05:17:46;;;;;;;24.42;16.38;;;;;;;18.27;63.39;97909.19;5102992;28;20036;-75
2021/07/05 05:20:12;;;;;;;25.35;17.58;;;;;;;18.35;63.28;97920.44;5100911;28;20089;-74
2021/07/05 05:22:38;;;;;;;25.55;15.98;;;;;;;18.40;63.53;97909.06;5102102;28;20098;-75
2021/07/05 05:25:06;;;;;;;23.63;16.10;;;;;;;18.49;63.38;97908.88;5102842;28;20027;-75
2021/07/05 05:27:31;;;;;;;23.00;16.48;;;;;;;18.57;63.18;97907.84;5101394;28;20027;-75
2021/07/05 05:29:57;;;;;;;24.10;16.48;;;;;;;18.64;63.26;97901.66;5101801;28;20086;-75
2021/07/05 05:32:22;;;;;;;23.23;15.60;;;;;;;18.72;63.01;97909.78;5105741;28;20139;-75
2021/07/05 05:34:48;;;;;;;27.30;16.25;;;;;;;18.80;62.81;97902.38;5083313;28;20047;-75
2021/07/05 05:37:13;;;;;;;26.40;16.60;;;;;;;18.90;63.01;97912.13;5103058;28;20447;-75
2021/07/05 05:39:38;;;;;;;27.10;16.90;;;;;;;19.01;62.86;97910.38;5109304;28;20024;-77
2021/07/05 05:42:04;;;;;;;21.88;15.20;;;;;;;19.18;62.87;97920.25;5106671;28;20160;-78
2021/07/05 05:44:31;;;;;;;22.48;15.13;;;;;;;19.27;62.82;97919.22;5104624;28;20053;-78
2021/07/05 05:46:56;;;;;;;23.23;15.70;;;;;;;19.36;62.87;97911.47;5102907;28;20111;-77
2021/07/05 05:49:21;;;;;;;22.45;15.63;;;;;;;19.46;62.34;97913.63;5101619;28;20341;-77
2021/07/05 05:51:47;;;;;;;24.55;16.50;;;;;;;19.51;62.25;97917.28;5100986;28;20070;-77
2021/07/05 05:54:12;;;;;;;21.85;15.07;;;;;;;19.58;61.99;97917.41;5084659;28;20443;-78
2021/07/05 05:56:40;;;;;;;23.00;15.35;;;;;;;19.67;61.91;97915.19;5108263;28;20143;-78
2021/07/05 05:59:08;;;;;;;20.73;14.63;;;;;;;19.73;61.82;97916.50;5104413;28;20020;-77
2021/07/05 06:01:35;;;;;;;23.60;15.07;;;;;;;19.82;61.77;97919.00;5110528;28;20027;-78
2021/07/05 06:04:01;;;;;;;22.52;15.30;;;;;;;19.90;61.64;97922.78;5113183;28;20023;-78
2021/07/05 06:06:27;;;;;;;20.50;14.23;;;;;;;20.00;61.53;97927.69;5105212;28;20082;-77
2021/07/05 06:08:53;;;;;;;20.88;15.13;;;;;;;20.09;61.32;97930.25;5074500;28;20472;-78
2021/07/05 06:11:19;;;;;;;20.52;14.80;;;;;;;20.22;61.45;97923.28;5092742;28;20031;-77
2021/07/05 06:13:44;;;;;;;25.52;13.52;;;;;;;20.31;61.33;97923.03;5093011;28;20039;-78
2021/07/05 06:16:10;;;;;;;20.80;13.55;;;;;;;20.38;60.59;97928.69;5102276;28;20443;-78
2021/07/05 06:18:35;;;;;;;20.45;13.68;;;;;;;20.46;60.92;97921.25;5113048;28;20471;-78
2021/07/05 06:21:01;;;;;;;23.02;14.38;;;;;;;20.56;60.74;97924.56;5114852;28;20028;-80
2021/07/05 06:23:28;;;;;;;24.15;14.85;;;;;;;20.63;60.83;97928.25;5113284;28;20077;-80
2021/07/05 06:25:55;;;;;;;22.23;13.80;;;;;;;20.72;60.80;97922.38;5113200;28;20026;-76
2021/07/05 06:28:22;;;;;;;22.40;14.52;;;;;;;20.79;60.54;97928.09;5112778;28;20034;-77
2021/07/05 06:30:49;;;;;;;20.67;15.07;;;;;;;20.84;60.35;97934.53;5112032;28;20471;-76
2021/07/05 06:33:16;;;;;;;19.67;14.02;;;;;;;20.90;60.53;97927.44;5106934;28;20027;-77
2021/07/05 06:35:42;;;;;;;18.00;13.15;;;;;;;21.00;60.35;97937.09;5103970;28;20064;-76
2021/07/05 06:38:08;;;;;;;18.00;13.60;;;;;;;21.02;59.61;97935.53;5098225;28;20116;-75
2021/07/05 06:40:34;;;;;;;18.02;13.60;;;;;;;21.08;59.85;97928.44;5104587;28;20043;-76
2021/07/05 06:43:00;;;;;;;20.58;14.05;;;;;;;21.15;59.75;97930.53;5098488;28;20367;-76
2021/07/05 06:45:25;;;;;;;22.55;14.70;;;;;;;21.21;59.52;97928.19;5094939;28;20067;-75
2021/07/05 06:47:51;;;;;;;20.17;14.88;;;;;;;21.31;59.36;97921.94;5097442;28;20475;-75
2021/07/05 06:50:16;;;;;;;17.88;12.90;;;;;;;21.39;59.19;97931.19;5098689;28;20063;-75
2021/07/05 06:52:42;;;;;;;18.88;13.13;;;;;;;21.46;58.90;97936.03;5107049;28;20023;-76
2021/07/05 06:55:08;;;;;;;18.42;12.88;;;;;;;21.52;58.94;97926.13;5103141;28;20034;-76
2021/07/05 06:57:33;;;;;;;21.95;13.57;;;;;;;21.58;58.64;97930.19;5090909;28;20068;-75
2021/07/05 07:00:01;;;;;;;19.42;13.40;;;;;;;21.62;58.22;97942.22;5096802;28;20084;-75
2021/07/05 07:02:26;;;;;;;17.60;12.63;;;;;;;21.63;57.89;97938.25;5098521;28;20703;-79
2021/07/05 07:04:52;;;;;;;19.73;12.60;;;;;;;21.69;57.59;97942.28;5075274;28;20169;-76
2021/07/05 07:07:17;;;;;;;15.80;12.30;;;;;;;21.78;57.50;97946.78;5107860;28;20055;-77
2021/07/05 07:09:43;;;;;;;15.98;12.60;;;;;;;21.84;57.52;97945.22;5096521;28;20020;-77
2021/07/05 07:12:08;;;;;;;18.98;12.63;;;;;;;21.92;57.17;97946.88;5090222;28;20070;-75
2021/07/05 07:14:34;;;;;;;14.63;11.98;;;;;;;21.97;56.58;97940.94;5092409;28;20108;-75
2021/07/05 07:17:08;;;;;;;17.85;11.68;;;;;;;22.01;56.52;97939.00;5101370;28;20038;-77
2021/07/05 07:19:34;;;;;;;17.20;10.90;;;;;;;22.10;55.80;97940.66;5099818;28;20030;-76
2021/07/05 07:22:03;;;;;;;17.15;11.57;;;;;;;22.19;56.26;97937.53;5103504;28;20020;-75
2021/07/05 07:24:29;;;;;;;17.48;11.80;;;;;;;22.29;56.32;97942.41;5096552;28;20031;-75
2021/07/05 07:26:54;;;;;;;18.38;11.70;;;;;;;22.39;56.20;97932.50;5109911;28;20411;-76
2021/07/05 07:29:19;;;;;;;22.58;13.35;;;;;;;22.52;56.13;97945.00;5092663;28;20073;-75
2021/07/05 07:31:45;;;;;;;20.52;12.57;;;;;;;22.63;56.18;97945.06;5102215;28;20031;-75
2021/07/05 07:34:10;;;;;;;17.58;11.63;;;;;;;22.76;56.05;97945.53;5093238;28;20038;-74
2021/07/05 07:36:36;;;;;;;20.77;12.43;;;;;;;22.93;56.21;97940.41;5099426;28;20028;-72
2021/07/05 07:39:10;;;;;;;19.65;13.05;;;;;;;23.11;55.99;97940.50;5101983;28;20038;-73
2021/07/05 07:41:35;;;;;;;18.15;12.02;;;;;;;23.30;56.08;97936.59;5094675;28;20024;-75
2021/07/05 07:44:03;;;;;;;14.20;10.95;;;;;;;23.43;55.61;97932.25;5091344;28;20432;-75
2021/07/05 07:46:29;;;;;;;17.02;11.02;;;;;;;23.54;54.93;97935.06;5100726;28;20024;-75
2021/07/05 07:48:54;;;;;;;13.38;10.75;;;;;;;23.70;54.55;97940.28;5092943;28;20766;-75
2021/07/05 07:51:20;;;;;;;12.45;10.07;;;;;;;23.79;54.57;97932.31;5095336;28;20051;-74
2021/07/05 07:53:45;;;;;;;15.20;10.85;;;;;;;23.91;54.49;97935.91;5099397;28;20031;-73
2021/07/05 07:56:11;;;;;;;14.68;10.70;;;;;;;23.97;54.50;97931.50;5091884;28;20016;-74
2021/07/05 07:58:36;;;;;;;16.55;10.80;;;;;;;24.02;54.07;97939.53;5070694;28;20028;-76
2021/07/05 08:01:01;;;;;;;13.15;10.10;;;;;;;24.08;53.96;97937.13;5093755;28;20012;-77
2021/07/05 08:03:28;;;;;;;15.52;10.68;;;;;;;24.13;53.43;97930.34;5101349;28;20170;-76
2021/07/05 08:05:55;;;;;;;14.40;10.30;;;;;;;24.14;53.61;97932.75;5105541;28;20074;-74
2021/07/05 08:08:20;;;;;;;13.65;10.82;;;;;;;24.16;53.45;97924.75;5106478;28;20024;-75
2021/07/05 08:10:46;;;;;;;13.48;9.77;;;;;;;24.18;51.97;97929.94;5104497;28;20364;-75
2021/07/05 08:13:11;;;;;;;15.13;10.20;;;;;;;24.16;51.27;97924.75;5104779;28;20036;-75
2021/07/05 08:15:37;;;;;;;16.80;10.50;;;;;;;24.18;52.27;97929.94;5109179;28;20816;-75
2021/07/05 08:18:02;;;;;;;17.17;11.75;;;;;;;24.21;51.98;97929.16;5092183;28;20039;-76
2021/07/05 08:20:28;;;;;;;16.80;10.75;;;;;;;24.28;52.22;97929.13;5092708;28;20036;-76
2021/07/05 08:22:55;;;;;;;18.00;11.00;;;;;;;24.35;51.84;97931.13;5093140;28;20028;-77
2021/07/05 08:25:23;;;;;;;16.33;10.95;;;;;;;24.38;51.28;97936.72;5076897;28;20035;-76
2021/07/05 08:27:49;;;;;;;15.75;10.00;;;;;;;24.46;50.97;97936.72;5098449;28;20024;-76
2021/07/05 08:30:16;;;;;;;17.85;10.07;;;;;;;24.50;51.45;97932.69;5094385;28;20051;-77
2021/07/05 08:32:41;;;;;;;14.60;9.85;;;;;;;24.56;49.00;97933.09;5095744;28;20031;-79
2021/07/05 08:35:07;;;;;;;13.45;9.27;;;;;;;24.54;50.33;97924.31;5107417;28;20399;-76
2021/07/05 08:37:34;;;;;;;16.02;10.07;;;;;;;24.66;50.79;97929.47;5094068;28;20030;-77
2021/07/05 08:39:59;;;;;;;14.95;9.73;;;;;;;24.72;49.33;97923.47;5100922;28;20053;-77
2021/07/05 08:42:26;;;;;;;15.82;9.82;;;;;;;24.76;48.75;97919.47;5103303;28;20059;-76
2021/07/05 08:44:52;;;;;;;18.05;13.85;;;;;;;24.83;49.50;97921.44;5099538;28;21346;-77
2021/07/05 08:47:19;;;;;;;13.40;9.32;;;;;;;24.88;48.53;97914.59;5099755;28;20038;-77
2021/07/05 08:49:46;;;;;;;20.00;14.98;;;;;;;24.90;48.99;97923.41;5100189;28;20103;-77
2021/07/05 08:52:11;;;;;;;19.15;15.63;;;;;;;24.93;48.55;97922.59;5078186;28;20391;-75
2021/07/05 08:54:36;;;;;;;17.08;12.20;;;;;;;24.97;48.49;97929.81;5073000;28;20131;-75
2021/07/05 08:57:03;;;;;;;10.90;7.78;;;;;;;25.00;47.28;97921.78;5092595;28;20063;-76
2021/07/05 08:59:30;;;;;;;24.27;20.33;;;;;;;25.04;46.93;97919.78;5097100;28;20468;-77
2021/07/05 09:01:56;;;;;;;12.00;9.23;;;;;;;25.14;46.96;97923.75;5093503;28;20024;-77
2021/07/05 09:04:21;;;;;;;11.55;8.77;;;;;;;25.23;46.74;97921.28;5099419;28;20067;-77
2021/07/05 09:07:07;;;;;;;14.52;9.73;;;;;;;25.36;47.54;97925.22;5094872;28;20036;-73
2021/07/05 09:09:35;;;;;;;12.30;8.82;;;;;;;25.50;46.64;97915.94;5105320;28;20027;-73
2021/07/05 09:12:05;;;;;;;14.88;8.60;;;;;;;25.57;44.59;97915.13;5108897;28;20314;-71
2021/07/05 09:14:31;;;;;;;13.30;8.52;;;;;;;25.56;43.55;97907.91;5098641;28;20047;-74
2021/07/05 09:16:57;;;;;;;13.90;8.80;;;;;;;25.58;43.79;97910.28;5090661;28;20472;-72
2021/07/05 09:19:28;;;;;;;10.70;7.95;;;;;;;25.66;44.27;97911.84;5101739;28;20050;-73
2021/07/05 09:22:03;;;;;;;11.13;7.38;;;;;;;25.75;44.63;97915.00;5098887;28;20523;-74
2021/07/05 09:24:41;;;;;;;11.63;7.18;;;;;;;25.88;43.98;97922.94;5100932;28;20540;-72
2021/07/05 09:27:17;;;;;;;10.23;7.35;;;;;;;25.98;43.64;97922.03;5094772;28;20123;-72
2021/07/05 09:29:43;;;;;;;10.02;7.63;;;;;;;26.12;43.88;97912.69;5103619;28;20077;-73
2021/07/05 09:32:12;;;;;;;12.63;8.32;;;;;;;26.25;43.85;97921.44;5094174;28;20023;-72
2021/07/05 09:34:40;;;;;;;10.60;7.95;;;;;;;26.32;43.16;97926.19;5089023;28;20035;-72
2021/07/05 09:37:20;;;;;;;11.02;8.68;;;;;;;26.24;41.66;97925.47;5085579;28;20020;-73
2021/07/05 09:40:01;;;;;;;9.48;8.05;;;;;;;26.09;41.06;97924.75;5110672;28;20107;-72
2021/07/05 09:42:28;;;;;;;14.05;8.18;;;;;;;25.97;40.82;97926.06;5110978;28;20074;-72
2021/07/05 09:44:55;;;;;;;12.27;9.25;;;;;;;25.89;40.75;97924.50;5103821;28;20043;-73
2021/07/05 09:47:25;;;;;;;14.43;9.52;;;;;;;25.79;41.55;97921.38;5089875;28;20024;-74
2021/07/05 09:49:52;;;;;;;12.63;9.45;;;;;;;25.70;41.31;97929.47;5103881;28;20380;-73
2021/07/05 09:52:26;;;;;;;13.77;9.38;;;;;;;25.65;41.58;97932.69;5108250;28;20051;-72
2021/07/05 09:55:07;;;;;;;18.65;9.68;;;;;;;25.59;41.91;97926.72;5089863;28;20084;-72
2021/07/05 09:57:41;;;;;;;15.48;10.18;;;;;;;25.51;41.81;97927.97;5071789;28;20036;-72
2021/07/05 10:00:06;;;;;;;15.45;10.15;;;;;;;25.46;41.73;97929.22;5071979;28;20880;-72
2021/07/05 10:02:33;;;;;;;14.57;9.60;;;;;;;25.44;42.37;97931.63;5092321;28;20127;-71
2021/07/05 10:05:14;;;;;;;14.80;9.88;;;;;;;25.42;42.55;97934.81;5109846;28;20050;-72
2021/07/05 10:07:39;;;;;;;13.52;9.32;;;;;;;25.42;42.44;97931.22;5109724;28;20059;-72
2021/07/05 10:10:14;;;;;;;15.20;10.25;;;;;;;25.42;43.13;97940.41;5109548;28;20483;-74
2021/07/05 10:12:53;;;;;;;16.38;10.77;;;;;;;25.41;42.51;97938.81;5110283;28;20148;-71
2021/07/05 10:15:20;;;;;;;19.98;11.18;;;;;;;25.40;42.04;97928.81;5109889;28;20024;-72
2021/07/05 10:17:48;;;;;;;17.17;11.15;;;;;;;25.42;42.09;97931.22;5109374;28;20080;-72
2021/07/05 10:20:16;;;;;;;16.52;10.98;;;;;;;25.39;42.45;97927.19;5092233;28;20061;-72
2021/07/05 10:22:45;;;;;;;13.68;10.07;;;;;;;25.44;42.32;97925.22;5089048;28;20074;-72
2021/07/05 10:25:10;;;;;;;17.05;10.88;;;;;;;25.51;42.38;97928.75;5089613;28;20111;-73
2021/07/05 10:27:36;;;;;;;20.23;11.05;;;;;;;25.62;42.47;97916.69;5089544;28;20032;-73
2021/07/05 10:30:04;;;;;;;19.70;11.38;;;;;;;25.65;41.84;97915.84;5091056;28;20023;-72
2021/07/05 10:32:30;;;;;;;17.08;11.27;;;;;;;25.69;42.03;97920.22;5104571;28;20027;-72
2021/07/05 10:34:55;;;;;;;17.33;11.90;;;;;;;25.70;42.30;97927.44;5105729;28;20463;-72
2021/07/05 10:37:33;;;;;;;17.52;10.57;;;;;;;25.81;42.05;97921.78;5108321;28;20027;-72
2021/07/05 10:40:00;;;;;;;14.95;10.13;;;;;;;25.89;42.06;97928.13;5109121;28;20054;-72
2021/07/05 10:42:32;;;;;;;17.02;10.00;;;;;;;25.96;42.14;97927.25;5109123;28;20049;-72
2021/07/05 10:44:58;;;;;;;17.13;10.88;;;;;;;26.05;41.68;97927.59;5101137;28;20012;-72
2021/07/05 10:47:47;;;;;;;14.85;10.07;;;;;;;26.10;41.50;97923.53;5105441;28;20028;-72
2021/07/05 10:50:41;;;;;;;14.82;10.25;;;;;;;26.16;41.30;97930.34;5089765;28;20043;-73
2021/07/05 10:53:12;;;;;;;16.98;9.65;;;;;;;26.18;41.61;97927.13;5088045;28;20028;-73
2021/07/05 10:55:49;;;;;;;12.40;9.38;;;;;;;26.23;41.42;97932.31;5105365;28;20027;-72
2021/07/05 10:58:19;;;;;;;9.57;7.80;;;;;;;26.26;40.60;97937.88;5109539;28;20027;-73
2021/07/05 11:00:48;;;;;;;10.13;7.32;;;;;;;26.30;40.78;97930.22;5109751;28;20055;-72
2021/07/05 11:03:35;;;;;;;21.42;14.23;;;;;;;26.39;40.75;97924.09;5105070;28;20364;-73
2021/07/05 11:06:01;;;;;;;14.05;8.27;;;;;;;26.51;40.81;97933.25;5109475;28;20067;-72
2021/07/05 11:08:38;;;;;;;10.43;7.13;;;;;;;26.64;39.53;97925.88;5102101;28;20066;-75
2021/07/05 11:11:22;;;;;;;9.63;7.28;;;;;;;26.80;38.95;97927.31;5095157;28;20488;-74
2021/07/05 11:14:09;;;;;;;12.30;8.63;;;;;;;26.95;38.75;97927.97;5090162;28;20028;-74
2021/07/05 11:16:59;;;;;;;9.25;7.28;;;;;;;27.11;39.54;97927.38;5107839;28;20031;-75
2021/07/05 11:19:41;;;;;;;13.00;9.50;;;;;;;27.17;39.14;97926.50;5110075;28;20364;-75